Time,TemperatureF,DewpointF,PressureIn,WindDirection,WindDirectionDegrees,WindSpeedMPH,WindSpeedGustMPH,Humidity,HourlyPrecipIn,Conditions,Clouds,dailyrainin,SoftwareType,DateUTC
2013-09-07 00:10:00,53.5,51.0,30.12,SW,227,0.0,0.0,90,0.00,,,0.00,weatherlink.com 1.10,2013-09-07 04:10:00,
2013-09-07 00:25:00,53.4,51.0,30.12,SW,226,0.0,0.0,90,0.00,,,0.00,weatherlink.com 1.10,2013-09-07 04:25:00,
2013-09-07 00:40:00,53.2,50.0,30.12,SW,225,0.0,0.0,89,0.00,,,0.00,weatherlink.com 1.10,2013-09-07 04:40:00,
2013-09-07 00:55:00,53.1,50.0,30.12,SW,226,0.0,0.0,90,0.00,,,0.00,weatherlink.com 1.10,2013-09-07 04:55:00,
2013-09-07 01:10:00,52.9,50.0,30.12,SW,226,0.0,0.0,91,0.00,,,0.00,weatherlink.com 1.10,2013-09-07 05:10:00,
2013-09-07 01:25:00,52.5,50.0,30.12,SW,225,0.0,0.0,92,0.00,,,0.00,weatherlink.com 1.10,2013-09-07 05:25:00,
2013-09-07 01:40:00,52.5,51.0,30.12,SW,226,0.0,0.0,93,0.00,,,0.00,weatherlink.com 1.10,2013-09-07 05:40:00,
2013-09-07 01:55:00,52.9,51.0,30.12,SW,226,0.0,0.0,92,0.00,,,0.00,weatherlink.com 1.10,2013-09-07 05:55:00,
2013-09-07 02:10:00,52.8,51.0,30.11,SW,226,0.0,0.0,92,0.00,,,0.00,weatherlink.com 1.10,2013-09-07 06:10:00,
2013-09-07 02:25:00,52.3,50.0,30.11,SW,226,0.0,0.0,92,0.00,,,0.00,weatherlink.com 1.10,2013-09-07 06:25:00,
2013-09-07 02:40:00,52.1,50.0,30.11,SW,226,0.0,0.0,92,0.00,,,0.00,weatherlink.com 1.10,2013-09-07 06:40:00,
2013-09-07 02:55:00,51.6,49.0,30.11,SW,226,0.0,0.0,92,0.00,,,0.00,weatherlink.com 1.10,2013-09-07 06:55:00,
2013-09-07 03:10:00,51.4,50.0,30.11,SW,226,0.0,0.0,93,0.00,,,0.00,weatherlink.com 1.10,2013-09-07 07:10:00,
2013-09-07 03:25:00,51.4,50.0,30.12,SW,226,0.0,0.0,93,0.00,,,0.00,weatherlink.com 1.10,2013-09-07 07:25:00,
2013-09-07 03:40:00,51.0,49.0,30.11,SW,226,0.0,0.0,93,0.00,,,0.00,weatherlink.com 1.10,2013-09-07 07:40:00,
2013-09-07 03:55:00,50.7,49.0,30.11,SW,226,0.0,0.0,93,0.00,,,0.00,weatherlink.com 1.10,2013-09-07 07:55:00,
2013-09-07 04:10:00,50.7,49.0,30.11,SW,226,0.0,0.0,94,0.00,,,0.00,weatherlink.com 1.10,2013-09-07 08:10:00,
2013-09-07 04:25:00,50.6,49.0,30.10,SW,226,0.0,0.0,94,0.00,,,0.00,weatherlink.com 1.10,2013-09-07 08:25:00,
2013-09-07 04:40:00,50.5,49.0,30.11,SW,226,0.0,0.0,94,0.00,,,0.00,weatherlink.com 1.10,2013-09-07 08:40:00,
2013-09-07 04:55:00,50.6,49.0,30.11,SW,226,0.0,0.0,94,0.00,,,0.00,weatherlink.com 1.10,2013-09-07 08:55:00,
2013-09-07 05:10:00,50.4,49.0,30.10,SW,226,0.0,0.0,94,0.00,,,0.00,weatherlink.com 1.10,2013-09-07 09:10:00,
2013-09-07 05:25:00,50.1,49.0,30.10,SW,226,0.0,0.0,95,0.00,,,0.00,weatherlink.com 1.10,2013-09-07 09:25:00,
2013-09-07 05:40:00,50.0,49.0,30.10,SW,226,0.0,0.0,95,0.00,,,0.00,weatherlink.com 1.10,2013-09-07 09:40:00,
2013-09-07 05:55:00,49.8,49.0,30.11,SW,226,0.0,0.0,95,0.00,,,0.00,weatherlink.com 1.10,2013-09-07 09:55:00,
2013-09-07 06:10:00,49.9,49.0,30.11,SW,226,0.0,0.0,95,0.00,,,0.00,weatherlink.com 1.10,2013-09-07 10:10:00,
2013-09-07 06:25:00,49.9,49.0,30.11,SW,226,0.0,0.0,95,0.00,,,0.00,weatherlink.com 1.10,2013-09-07 10:25:00,
2013-09-07 06:40:00,49.9,49.0,30.11,SW,226,0.0,0.0,95,0.00,,,0.00,weatherlink.com 1.10,2013-09-07 10:40:00,
2013-09-07 06:55:00,49.7,48.0,30.11,SW,226,0.0,0.0,95,0.00,,,0.00,weatherlink.com 1.10,2013-09-07 10:55:00,
2013-09-07 07:10:00,49.9,49.0,30.11,SW,226,0.0,0.0,96,0.00,,,0.00,weatherlink.com 1.10,2013-09-07 11:10:00,
2013-09-07 07:25:00,51.1,50.0,30.11,SW,226,0.0,0.0,97,0.00,,,0.00,weatherlink.com 1.10,2013-09-07 11:25:00,
2013-09-07 07:40:00,51.9,51.0,30.10,SW,226,0.0,0.0,97,0.00,,,0.00,weatherlink.com 1.10,2013-09-07 11:40:00,
2013-09-07 07:55:00,52.9,52.0,30.10,SW,226,0.0,0.0,97,0.00,,,0.00,weatherlink.com 1.10,2013-09-07 11:55:00,
2013-09-07 08:11:00,54.7,54.0,30.11,ESE,105,0.0,0.0,97,0.00,,,0.00,weatherlink.com 1.10,2013-09-07 12:11:00,
2013-09-07 08:26:00,56.9,56.0,30.10,ESE,105,0.0,0.0,97,0.00,,,0.00,weatherlink.com 1.10,2013-09-07 12:26:00,
2013-09-07 08:41:00,59.0,56.0,30.10,ESE,104,0.0,1.0,91,0.00,,,0.00,weatherlink.com 1.10,2013-09-07 12:41:00,
2013-09-07 08:56:00,61.2,56.0,30.10,ESE,104,0.0,1.0,84,0.00,,,0.00,weatherlink.com 1.10,2013-09-07 12:56:00,
2013-09-07 09:11:00,62.4,55.0,30.10,SW,230,0.0,3.0,76,0.00,,,0.00,weatherlink.com 1.10,2013-09-07 13:11:00,
2013-09-07 09:26:00,63.7,55.0,30.09,SW,224,1.0,2.0,72,0.00,,,0.00,weatherlink.com 1.10,2013-09-07 13:26:00,
2013-09-07 09:41:00,64.3,54.0,30.09,SSW,198,0.0,1.0,69,0.00,,,0.00,weatherlink.com 1.10,2013-09-07 13:41:00,
2013-09-07 09:56:00,66.2,54.0,30.09,SW,233,1.0,3.0,64,0.00,,,0.00,weatherlink.com 1.10,2013-09-07 13:56:00,
2013-09-07 10:11:00,67.8,54.0,30.09,SW,222,0.0,4.0,61,0.00,,,0.00,weatherlink.com 1.10,2013-09-07 14:11:00,
2013-09-07 10:26:00,69.2,55.0,30.09,SW,228,1.0,3.0,60,0.00,,,0.00,weatherlink.com 1.10,2013-09-07 14:26:00,
2013-09-07 10:41:00,70.7,55.0,30.09,SW,233,2.0,4.0,58,0.00,,,0.00,weatherlink.com 1.10,2013-09-07 14:41:00,
2013-09-07 10:56:00,71.8,56.0,30.09,SE,144,1.0,4.0,58,0.00,,,0.00,weatherlink.com 1.10,2013-09-07 14:56:00,
2013-09-07 11:11:00,73.8,55.0,30.09,SW,232,2.0,4.0,53,0.00,,,0.00,weatherlink.com 1.10,2013-09-07 15:11:00,
2013-09-07 11:26:00,74.0,57.0,30.09,SW,229,2.0,4.0,55,0.00,,,0.00,weatherlink.com 1.10,2013-09-07 15:26:00,
2013-09-07 11:41:00,74.5,57.0,30.09,SW,233,2.0,4.0,55,0.00,,,0.00,weatherlink.com 1.10,2013-09-07 15:41:00,
2013-09-07 11:56:00,74.7,58.0,30.08,West,269,2.0,3.0,56,0.00,,,0.00,weatherlink.com 1.10,2013-09-07 15:56:00,
2013-09-07 12:11:00,75.7,59.0,30.07,SW,217,1.0,5.0,57,0.00,,,0.00,weatherlink.com 1.10,2013-09-07 16:11:00,
2013-09-07 12:27:00,77.2,60.0,30.07,West,281,3.0,6.0,55,0.00,,,0.00,weatherlink.com 1.10,2013-09-07 16:27:00,
2013-09-07 12:42:00,77.7,60.0,30.06,SW,222,2.0,5.0,54,0.00,,,0.00,weatherlink.com 1.10,2013-09-07 16:42:00,
2013-09-07 12:57:00,79.2,60.0,30.06,SW,233,1.0,5.0,52,0.00,,,0.00,weatherlink.com 1.10,2013-09-07 16:57:00,
2013-09-07 13:12:00,80.8,61.0,30.05,SSE,160,1.0,4.0,51,0.00,,,0.00,weatherlink.com 1.10,2013-09-07 17:12:00,
2013-09-07 13:27:00,80.3,62.0,30.05,SW,219,1.0,4.0,54,0.00,,,0.00,weatherlink.com 1.10,2013-09-07 17:27:00,
2013-09-07 13:42:00,81.3,62.0,30.05,SW,235,2.0,3.0,53,0.00,,,0.00,weatherlink.com 1.10,2013-09-07 17:42:00,
2013-09-07 13:57:00,82.1,64.0,30.04,SE,136,0.0,5.0,54,0.00,,,0.00,weatherlink.com 1.10,2013-09-07 17:57:00,
2013-09-07 14:12:00,82.9,64.0,30.03,SW,225,2.0,3.0,53,0.00,,,0.00,weatherlink.com 1.10,2013-09-07 18:12:00,
2013-09-07 14:27:00,84.0,64.0,30.02,SSW,212,2.0,6.0,52,0.00,,,0.00,weatherlink.com 1.10,2013-09-07 18:27:00,
2013-09-07 14:42:00,84.3,65.0,30.02,SW,236,2.0,5.0,52,0.00,,,0.00,weatherlink.com 1.10,2013-09-07 18:42:00,
2013-09-07 14:57:00,83.4,64.0,30.01,SSW,200,1.0,6.0,53,0.00,,,0.00,weatherlink.com 1.10,2013-09-07 18:57:00,
2013-09-07 15:12:00,84.3,65.0,30.01,SW,229,1.0,6.0,53,0.00,,,0.00,weatherlink.com 1.10,2013-09-07 19:12:00,
2013-09-07 15:27:00,84.8,66.0,30.00,ENE,77,2.0,5.0,53,0.00,,,0.00,weatherlink.com 1.10,2013-09-07 19:27:00,
2013-09-07 15:42:00,84.9,65.0,30.00,SW,228,2.0,6.0,51,0.00,,,0.00,weatherlink.com 1.10,2013-09-07 19:42:00,
2013-09-07 15:57:00,85.6,65.0,29.99,SW,233,6.0,9.0,50,0.00,,,0.00,weatherlink.com 1.10,2013-09-07 19:57:00,
2013-09-07 16:12:00,84.3,63.0,29.98,WSW,246,3.0,7.0,49,0.00,,,0.00,weatherlink.com 1.10,2013-09-07 20:12:00,
2013-09-07 16:27:00,84.0,64.0,29.98,WSW,246,0.0,4.0,51,0.00,,,0.00,weatherlink.com 1.10,2013-09-07 20:27:00,
2013-09-07 16:42:00,84.8,64.0,29.97,WSW,243,2.0,5.0,49,0.00,,,0.00,weatherlink.com 1.10,2013-09-07 20:42:00,
2013-09-07 16:57:00,85.3,64.0,29.97,SW,233,2.0,3.0,49,0.00,,,0.00,weatherlink.com 1.10,2013-09-07 20:57:00,
2013-09-07 17:12:00,86.1,64.0,29.97,NW,323,1.0,5.0,48,0.00,,,0.00,weatherlink.com 1.10,2013-09-07 21:12:00,
2013-09-07 17:27:00,85.9,64.0,29.97,SW,219,3.0,5.0,48,0.00,,,0.00,weatherlink.com 1.10,2013-09-07 21:27:00,
2013-09-07 17:42:00,84.7,64.0,29.97,SW,231,2.0,6.0,50,0.00,,,0.00,weatherlink.com 1.10,2013-09-07 21:42:00,
2013-09-07 17:57:00,84.2,64.0,29.97,SSE,147,1.0,6.0,51,0.00,,,0.00,weatherlink.com 1.10,2013-09-07 21:57:00,
2013-09-07 18:12:00,84.1,64.0,29.96,SSE,164,0.0,8.0,51,0.00,,,0.00,weatherlink.com 1.10,2013-09-07 22:12:00,
2013-09-07 18:27:00,83.3,64.0,29.96,SW,226,1.0,6.0,53,0.00,,,0.00,weatherlink.com 1.10,2013-09-07 22:27:00,
2013-09-07 18:42:00,82.8,64.0,29.95,WSW,243,5.0,8.0,53,0.00,,,0.00,weatherlink.com 1.10,2013-09-07 22:42:00,
2013-09-07 18:57:00,81.9,64.0,29.96,SSW,212,1.0,8.0,55,0.00,,,0.00,weatherlink.com 1.10,2013-09-07 22:57:00,
2013-09-07 19:12:00,81.4,64.0,29.96,SW,231,2.0,5.0,56,0.00,,,0.00,weatherlink.com 1.10,2013-09-07 23:12:00,
2013-09-07 19:27:00,80.8,65.0,29.96,SW,218,3.0,5.0,58,0.00,,,0.00,weatherlink.com 1.10,2013-09-07 23:27:00,
2013-09-07 19:42:00,80.1,65.0,29.95,SW,233,0.0,3.0,60,0.00,,,0.00,weatherlink.com 1.10,2013-09-07 23:42:00,
2013-09-07 19:57:00,79.7,65.0,29.96,SW,228,1.0,5.0,61,0.00,,,0.00,weatherlink.com 1.10,2013-09-07 23:57:00,
2013-09-07 20:13:00,79.0,65.0,29.96,SW,222,1.0,4.0,63,0.00,,,0.00,weatherlink.com 1.10,2013-09-08 00:13:00,
2013-09-07 20:27:00,78.3,65.0,29.96,SW,233,1.0,4.0,64,0.00,,,0.00,weatherlink.com 1.10,2013-09-08 00:27:00,
2013-09-07 20:42:00,77.7,65.0,29.97,SW,233,1.0,2.0,65,0.00,,,0.00,weatherlink.com 1.10,2013-09-08 00:42:00,
2013-09-07 20:58:00,77.0,65.0,29.97,WSW,241,1.0,3.0,67,0.00,,,0.00,weatherlink.com 1.10,2013-09-08 00:58:00,
2013-09-07 21:13:00,76.4,65.0,29.97,SW,228,0.0,2.0,68,0.00,,,0.00,weatherlink.com 1.10,2013-09-08 01:13:00,
2013-09-07 21:28:00,75.7,65.0,29.97,SSE,168,1.0,2.0,70,0.00,,,0.00,weatherlink.com 1.10,2013-09-08 01:28:00,
2013-09-07 21:43:00,75.0,65.0,29.97,SW,224,1.0,3.0,71,0.00,,,0.00,weatherlink.com 1.10,2013-09-08 01:43:00,
2013-09-07 21:58:00,74.8,65.0,29.96,SW,222,2.0,4.0,72,0.00,,,0.00,weatherlink.com 1.10,2013-09-08 01:58:00,
2013-09-07 22:13:00,74.4,65.0,29.96,SW,228,1.0,3.0,73,0.00,,,0.00,weatherlink.com 1.10,2013-09-08 02:13:00,
2013-09-07 22:28:00,74.2,65.0,29.96,SSW,210,2.0,4.0,74,0.00,,,0.00,weatherlink.com 1.10,2013-09-08 02:28:00,
2013-09-07 22:43:00,74.0,66.0,29.96,SW,231,2.0,4.0,75,0.00,,,0.00,weatherlink.com 1.10,2013-09-08 02:43:00,
2013-09-07 22:58:00,73.7,65.0,29.96,SSW,205,2.0,5.0,75,0.00,,,0.00,weatherlink.com 1.10,2013-09-08 02:58:00,
2013-09-07 23:13:00,73.5,66.0,29.96,SW,225,2.0,4.0,76,0.00,,,0.00,weatherlink.com 1.10,2013-09-08 03:13:00,
2013-09-07 23:28:00,73.3,65.0,29.97,SW,220,2.0,4.0,76,0.00,,,0.00,weatherlink.com 1.10,2013-09-08 03:28:00,
2013-09-07 23:43:00,73.2,66.0,29.96,WSW,246,1.0,4.0,77,0.00,,,0.00,weatherlink.com 1.10,2013-09-08 03:43:00,
2013-09-07 23:58:00,73.1,66.0,29.96,SW,231,1.0,3.0,77,0.00,,,0.00,weatherlink.com 1.10,2013-09-08 03:58:00,